sensor_id;sensor_type;location;lat;lon;timestamp;P1;durP1;ratioP1;P2;durP2;ratioP2
75739;SDS011;64357;51.344;6.550;2023-07-13T00:01:49;5.40;;;1.13;;
75739;SDS011;64357;51.344;6.550;2023-07-13T00:04:19;4.30;;;1.10;;
75739;SDS011;64357;51.344;6.550;2023-07-13T00:09:15;4.15;;;0.88;;
75739;SDS011;64357;51.344;6.550;2023-07-13T00:11:42;4.25;;;1.05;;
75739;SDS011;64357;51.344;6.550;2023-07-13T00:14:08;3.95;;;0.90;;
75739;SDS011;64357;51.344;6.550;2023-07-13T00:16:35;3.28;;;0.80;;
75739;SDS011;64357;51.344;6.550;2023-07-13T00:19:05;7.22;;;1.10;;
75739;SDS011;64357;51.344;6.550;2023-07-13T00:21:32;7.30;;;1.02;;
75739;SDS011;64357;51.344;6.550;2023-07-13T00:23:58;4.03;;;0.73;;
75739;SDS011;64357;51.344;6.550;2023-07-13T00:26:26;1.77;;;0.80;;
75739;SDS011;64357;51.344;6.550;2023-07-13T00:28:53;4.40;;;0.98;;
75739;SDS011;64357;51.344;6.550;2023-07-13T00:31:21;6.23;;;0.80;;
75739;SDS011;64357;51.344;6.550;2023-07-13T00:33:46;2.63;;;0.65;;
75739;SDS011;64357;51.344;6.550;2023-07-13T00:36:12;5.40;;;0.90;;
75739;SDS011;64357;51.344;6.550;2023-07-13T00:38:38;4.97;;;1.10;;
75739;SDS011;64357;51.344;6.550;2023-07-13T00:41:03;4.80;;;1.60;;
75739;SDS011;64357;51.344;6.550;2023-07-13T00:43:29;6.55;;;1.10;;
75739;SDS011;64357;51.344;6.550;2023-07-13T00:48:21;5.07;;;1.20;;
75739;SDS011;64357;51.344;6.550;2023-07-13T00:50:51;3.90;;;0.80;;
75739;SDS011;64357;51.344;6.550;2023-07-13T00:53:20;5.55;;;1.33;;
75739;SDS011;64357;51.344;6.550;2023-07-13T00:55:47;4.65;;;0.98;;
75739;SDS011;64357;51.344;6.550;2023-07-13T00:58:17;3.60;;;0.77;;
75739;SDS011;64357;51.344;6.550;2023-07-13T01:00:45;6.03;;;1.20;;
75739;SDS011;64357;51.344;6.550;2023-07-13T01:03:12;4.57;;;1.10;;
75739;SDS011;64357;51.344;6.550;2023-07-13T01:05:37;5.60;;;0.95;;
75739;SDS011;64357;51.344;6.550;2023-07-13T01:08:04;4.65;;;0.90;;
75739;SDS011;64357;51.344;6.550;2023-07-13T01:10:30;4.47;;;1.08;;
75739;SDS011;64357;51.344;6.550;2023-07-13T01:13:03;2.97;;;0.80;;
75739;SDS011;64357;51.344;6.550;2023-07-13T01:18:07;3.70;;;0.80;;
75739;SDS011;64357;51.344;6.550;2023-07-13T01:20:35;3.67;;;0.90;;
75739;SDS011;64357;51.344;6.550;2023-07-13T01:23:05;4.13;;;0.90;;
75739;SDS011;64357;51.344;6.550;2023-07-13T01:25:31;4.28;;;1.00;;
75739;SDS011;64357;51.344;6.550;2023-07-13T01:27:57;5.97;;;1.27;;
75739;SDS011;64357;51.344;6.550;2023-07-13T01:30:22;4.03;;;0.70;;
75739;SDS011;64357;51.344;6.550;2023-07-13T01:32:50;5.07;;;1.90;;
75739;SDS011;64357;51.344;6.550;2023-07-13T01:35:15;5.07;;;0.90;;
75739;SDS011;64357;51.344;6.550;2023-07-13T01:37:43;4.30;;;0.80;;
75739;SDS011;64357;51.344;6.550;2023-07-13T01:40:10;9.80;;;2.85;;
75739;SDS011;64357;51.344;6.550;2023-07-13T01:42:36;3.67;;;0.82;;
75739;SDS011;64357;51.344;6.550;2023-07-13T01:45:02;3.38;;;0.90;;
75739;SDS011;64357;51.344;6.550;2023-07-13T01:47:30;8.57;;;1.00;;
75739;SDS011;64357;51.344;6.550;2023-07-13T01:49:56;2.63;;;0.80;;
75739;SDS011;64357;51.344;6.550;2023-07-13T01:52:22;4.55;;;0.90;;
75739;SDS011;64357;51.344;6.550;2023-07-13T01:54:50;5.65;;;1.05;;
75739;SDS011;64357;51.344;6.550;2023-07-13T01:57:18;12.23;;;1.90;;
75739;SDS011;64357;51.344;6.550;2023-07-13T01:59:46;4.72;;;1.00;;
75739;SDS011;64357;51.344;6.550;2023-07-13T02:02:14;4.47;;;1.15;;
75739;SDS011;64357;51.344;6.550;2023-07-13T02:04:40;5.30;;;0.90;;
75739;SDS011;64357;51.344;6.550;2023-07-13T02:07:05;5.57;;;1.33;;
75739;SDS011;64357;51.344;6.550;2023-07-13T02:09:32;4.28;;;0.90;;
75739;SDS011;64357;51.344;6.550;2023-07-13T02:11:57;4.60;;;1.27;;
75739;SDS011;64357;51.344;6.550;2023-07-13T02:14:22;5.70;;;1.07;;
75739;SDS011;64357;51.344;6.550;2023-07-13T02:16:50;6.68;;;1.10;;
75739;SDS011;64357;51.344;6.550;2023-07-13T02:19:15;3.77;;;1.10;;
75739;SDS011;64357;51.344;6.550;2023-07-13T02:21:41;4.67;;;1.00;;
75739;SDS011;64357;51.344;6.550;2023-07-13T02:24:08;4.90;;;1.00;;
75739;SDS011;64357;51.344;6.550;2023-07-13T02:26:34;5.53;;;1.77;;
75739;SDS011;64357;51.344;6.550;2023-07-13T02:28:59;5.50;;;0.95;;
75739;SDS011;64357;51.344;6.550;2023-07-13T02:31:25;3.77;;;0.87;;
75739;SDS011;64357;51.344;6.550;2023-07-13T02:33:52;2.90;;;0.90;;
75739;SDS011;64357;51.344;6.550;2023-07-13T02:36:18;5.27;;;1.20;;
75739;SDS011;64357;51.344;6.550;2023-07-13T02:38:43;4.93;;;0.95;;
75739;SDS011;64357;51.344;6.550;2023-07-13T02:41:09;2.72;;;0.95;;
75739;SDS011;64357;51.344;6.550;2023-07-13T02:43:34;6.35;;;1.10;;
75739;SDS011;64357;51.344;6.550;2023-07-13T02:46:01;4.50;;;1.17;;
75739;SDS011;64357;51.344;6.550;2023-07-13T02:48:31;6.95;;;0.90;;
75739;SDS011;64357;51.344;6.550;2023-07-13T02:51:02;6.68;;;1.10;;
75739;SDS011;64357;51.344;6.550;2023-07-13T02:53:30;5.68;;;0.80;;
75739;SDS011;64357;51.344;6.550;2023-07-13T02:55:55;3.88;;;0.82;;
75739;SDS011;64357;51.344;6.550;2023-07-13T02:58:23;4.00;;;1.05;;
75739;SDS011;64357;51.344;6.550;2023-07-13T03:00:48;4.05;;;1.00;;
75739;SDS011;64357;51.344;6.550;2023-07-13T03:03:15;5.47;;;0.85;;
75739;SDS011;64357;51.344;6.550;2023-07-13T03:05:42;6.82;;;1.40;;
75739;SDS011;64357;51.344;6.550;2023-07-13T03:08:09;2.83;;;1.00;;
75739;SDS011;64357;51.344;6.550;2023-07-13T03:10:35;3.33;;;0.90;;
75739;SDS011;64357;51.344;6.550;2023-07-13T03:13:01;3.53;;;1.07;;
75739;SDS011;64357;51.344;6.550;2023-07-13T03:15:26;4.20;;;1.10;;
75739;SDS011;64357;51.344;6.550;2023-07-13T03:17:52;4.07;;;0.95;;
75739;SDS011;64357;51.344;6.550;2023-07-13T03:20:19;4.85;;;1.00;;
75739;SDS011;64357;51.344;6.550;2023-07-13T03:22:45;6.30;;;1.10;;
75739;SDS011;64357;51.344;6.550;2023-07-13T03:25:13;6.97;;;1.55;;
75739;SDS011;64357;51.344;6.550;2023-07-13T03:27:38;5.93;;;1.25;;
75739;SDS011;64357;51.344;6.550;2023-07-13T03:30:04;4.95;;;1.15;;
75739;SDS011;64357;51.344;6.550;2023-07-13T03:32:30;5.65;;;1.27;;
75739;SDS011;64357;51.344;6.550;2023-07-13T03:34:55;5.20;;;1.23;;
75739;SDS011;64357;51.344;6.550;2023-07-13T03:37:21;6.10;;;1.25;;
75739;SDS011;64357;51.344;6.550;2023-07-13T03:39:46;4.23;;;1.20;;
75739;SDS011;64357;51.344;6.550;2023-07-13T03:42:12;3.40;;;1.30;;
75739;SDS011;64357;51.344;6.550;2023-07-13T03:44:38;7.75;;;1.20;;
75739;SDS011;64357;51.344;6.550;2023-07-13T03:47:04;3.92;;;1.30;;
75739;SDS011;64357;51.344;6.550;2023-07-13T03:49:34;5.22;;;1.27;;
75739;SDS011;64357;51.344;6.550;2023-07-13T03:51:59;3.85;;;1.10;;
75739;SDS011;64357;51.344;6.550;2023-07-13T03:54:25;5.95;;;1.35;;
75739;SDS011;64357;51.344;6.550;2023-07-13T03:56:53;5.20;;;1.10;;
75739;SDS011;64357;51.344;6.550;2023-07-13T03:59:18;4.80;;;0.98;;
75739;SDS011;64357;51.344;6.550;2023-07-13T04:01:44;4.53;;;1.10;;
75739;SDS011;64357;51.344;6.550;2023-07-13T04:04:09;4.15;;;1.00;;
75739;SDS011;64357;51.344;6.550;2023-07-13T04:06:34;4.90;;;1.00;;
75739;SDS011;64357;51.344;6.550;2023-07-13T04:09:00;4.25;;;1.13;;
75739;SDS011;64357;51.344;6.550;2023-07-13T04:11:30;4.57;;;1.25;;
75739;SDS011;64357;51.344;6.550;2023-07-13T04:13:59;6.28;;;1.30;;
75739;SDS011;64357;51.344;6.550;2023-07-13T04:16:25;3.58;;;1.10;;
75739;SDS011;64357;51.344;6.550;2023-07-13T04:18:53;6.72;;;1.05;;
75739;SDS011;64357;51.344;6.550;2023-07-13T04:21:22;6.88;;;1.65;;
75739;SDS011;64357;51.344;6.550;2023-07-13T04:23:49;8.05;;;1.45;;
75739;SDS011;64357;51.344;6.550;2023-07-13T04:26:15;8.40;;;1.40;;
75739;SDS011;64357;51.344;6.550;2023-07-13T04:28:43;4.85;;;1.20;;
75739;SDS011;64357;51.344;6.550;2023-07-13T04:31:08;3.97;;;0.98;;
75739;SDS011;64357;51.344;6.550;2023-07-13T04:33:34;5.95;;;1.20;;
75739;SDS011;64357;51.344;6.550;2023-07-13T04:35:59;7.23;;;1.23;;
75739;SDS011;64357;51.344;6.550;2023-07-13T04:38:27;6.25;;;1.05;;
75739;SDS011;64357;51.344;6.550;2023-07-13T04:40:55;6.55;;;1.13;;
75739;SDS011;64357;51.344;6.550;2023-07-13T04:43:27;5.72;;;1.27;;
75739;SDS011;64357;51.344;6.550;2023-07-13T04:45:55;6.35;;;1.30;;
75739;SDS011;64357;51.344;6.550;2023-07-13T04:50:54;5.53;;;1.10;;
75739;SDS011;64357;51.344;6.550;2023-07-13T04:53:20;6.25;;;1.30;;
75739;SDS011;64357;51.344;6.550;2023-07-13T04:55:45;8.07;;;1.50;;
75739;SDS011;64357;51.344;6.550;2023-07-13T04:58:12;7.63;;;1.60;;
75739;SDS011;64357;51.344;6.550;2023-07-13T05:00:37;7.55;;;1.30;;
75739;SDS011;64357;51.344;6.550;2023-07-13T05:03:03;5.63;;;1.05;;
75739;SDS011;64357;51.344;6.550;2023-07-13T05:05:29;8.52;;;1.70;;
75739;SDS011;64357;51.344;6.550;2023-07-13T05:07:57;5.10;;;1.15;;
75739;SDS011;64357;51.344;6.550;2023-07-13T05:10:23;6.50;;;1.23;;
75739;SDS011;64357;51.344;6.550;2023-07-13T05:12:48;4.25;;;1.05;;
75739;SDS011;64357;51.344;6.550;2023-07-13T05:15:20;5.05;;;1.05;;
75739;SDS011;64357;51.344;6.550;2023-07-13T05:17:49;6.05;;;1.35;;
75739;SDS011;64357;51.344;6.550;2023-07-13T05:20:17;5.05;;;1.83;;
75739;SDS011;64357;51.344;6.550;2023-07-13T05:22:43;5.85;;;1.35;;
75739;SDS011;64357;51.344;6.550;2023-07-13T05:25:09;6.40;;;1.60;;
75739;SDS011;64357;51.344;6.550;2023-07-13T05:27:35;8.13;;;1.85;;
75739;SDS011;64357;51.344;6.550;2023-07-13T05:30:03;5.57;;;1.35;;
75739;SDS011;64357;51.344;6.550;2023-07-13T05:34:58;7.35;;;2.65;;
75739;SDS011;64357;51.344;6.550;2023-07-13T05:37:23;5.57;;;1.47;;
75739;SDS011;64357;51.344;6.550;2023-07-13T05:39:48;11.60;;;1.53;;
75739;SDS011;64357;51.344;6.550;2023-07-13T05:42:16;9.23;;;2.00;;
75739;SDS011;64357;51.344;6.550;2023-07-13T05:44:44;6.57;;;1.30;;
75739;SDS011;64357;51.344;6.550;2023-07-13T05:47:13;9.88;;;3.22;;
75739;SDS011;64357;51.344;6.550;2023-07-13T05:49:43;8.93;;;2.08;;
75739;SDS011;64357;51.344;6.550;2023-07-13T05:52:10;7.20;;;1.60;;
75739;SDS011;64357;51.344;6.550;2023-07-13T05:54:36;11.17;;;2.03;;
75739;SDS011;64357;51.344;6.550;2023-07-13T05:57:03;8.75;;;1.88;;
75739;SDS011;64357;51.344;6.550;2023-07-13T05:59:29;9.18;;;1.50;;
75739;SDS011;64357;51.344;6.550;2023-07-13T06:01:54;7.23;;;2.10;;
75739;SDS011;64357;51.344;6.550;2023-07-13T06:04:22;9.43;;;1.90;;
75739;SDS011;64357;51.344;6.550;2023-07-13T06:06:48;7.97;;;1.40;;
75739;SDS011;64357;51.344;6.550;2023-07-13T06:09:16;7.82;;;1.98;;
75739;SDS011;64357;51.344;6.550;2023-07-13T06:11:41;8.83;;;2.50;;
75739;SDS011;64357;51.344;6.550;2023-07-13T06:14:07;10.35;;;1.85;;
75739;SDS011;64357;51.344;6.550;2023-07-13T06:16:35;7.32;;;1.95;;
75739;SDS011;64357;51.344;6.550;2023-07-13T06:19:00;7.53;;;2.30;;
75739;SDS011;64357;51.344;6.550;2023-07-13T06:21:28;10.38;;;2.47;;
75739;SDS011;64357;51.344;6.550;2023-07-13T06:23:53;9.10;;;2.20;;
75739;SDS011;64357;51.344;6.550;2023-07-13T06:26:19;10.87;;;2.03;;
75739;SDS011;64357;51.344;6.550;2023-07-13T06:28:47;10.57;;;2.20;;
75739;SDS011;64357;51.344;6.550;2023-07-13T06:31:14;8.85;;;1.77;;
75739;SDS011;64357;51.344;6.550;2023-07-13T06:33:40;11.02;;;2.33;;
75739;SDS011;64357;51.344;6.550;2023-07-13T06:36:06;10.88;;;2.50;;
75739;SDS011;64357;51.344;6.550;2023-07-13T06:38:34;12.13;;;2.92;;
75739;SDS011;64357;51.344;6.550;2023-07-13T06:41:02;9.27;;;2.35;;
75739;SDS011;64357;51.344;6.550;2023-07-13T06:43:28;8.57;;;1.80;;
75739;SDS011;64357;51.344;6.550;2023-07-13T06:45:56;10.32;;;2.63;;
75739;SDS011;64357;51.344;6.550;2023-07-13T06:48:22;10.23;;;2.13;;
75739;SDS011;64357;51.344;6.550;2023-07-13T06:50:48;9.38;;;2.40;;
75739;SDS011;64357;51.344;6.550;2023-07-13T06:53:15;9.70;;;2.40;;
75739;SDS011;64357;51.344;6.550;2023-07-13T06:55:40;8.25;;;2.60;;
75739;SDS011;64357;51.344;6.550;2023-07-13T06:58:14;7.32;;;2.20;;
75739;SDS011;64357;51.344;6.550;2023-07-13T07:00:40;12.73;;;2.67;;
75739;SDS011;64357;51.344;6.550;2023-07-13T07:03:06;6.13;;;2.40;;
75739;SDS011;64357;51.344;6.550;2023-07-13T07:05:32;9.40;;;3.08;;
75739;SDS011;64357;51.344;6.550;2023-07-13T07:07:58;8.60;;;2.50;;
75739;SDS011;64357;51.344;6.550;2023-07-13T07:10:23;10.35;;;2.17;;
75739;SDS011;64357;51.344;6.550;2023-07-13T07:12:53;5.88;;;2.38;;
75739;SDS011;64357;51.344;6.550;2023-07-13T07:15:19;10.45;;;2.83;;
75739;SDS011;64357;51.344;6.550;2023-07-13T07:17:44;10.32;;;2.78;;
75739;SDS011;64357;51.344;6.550;2023-07-13T07:20:14;7.13;;;2.85;;
75739;SDS011;64357;51.344;6.550;2023-07-13T07:22:45;12.45;;;2.42;;
75739;SDS011;64357;51.344;6.550;2023-07-13T07:25:13;8.05;;;2.15;;
75739;SDS011;64357;51.344;6.550;2023-07-13T07:27:41;8.02;;;2.33;;
75739;SDS011;64357;51.344;6.550;2023-07-13T07:30:06;7.85;;;2.08;;
75739;SDS011;64357;51.344;6.550;2023-07-13T07:32:32;12.10;;;3.13;;
75739;SDS011;64357;51.344;6.550;2023-07-13T07:34:58;9.27;;;3.10;;
75739;SDS011;64357;51.344;6.550;2023-07-13T07:37:23;9.35;;;2.40;;
75739;SDS011;64357;51.344;6.550;2023-07-13T07:39:51;8.18;;;2.78;;
75739;SDS011;64357;51.344;6.550;2023-07-13T07:42:21;10.38;;;2.83;;
75739;SDS011;64357;51.344;6.550;2023-07-13T07:44:49;6.88;;;2.30;;
75739;SDS011;64357;51.344;6.550;2023-07-13T07:47:14;8.38;;;2.55;;
75739;SDS011;64357;51.344;6.550;2023-07-13T07:49:40;10.25;;;3.05;;
75739;SDS011;64357;51.344;6.550;2023-07-13T07:52:08;8.75;;;2.25;;
75739;SDS011;64357;51.344;6.550;2023-07-13T07:54:33;8.80;;;2.38;;
75739;SDS011;64357;51.344;6.550;2023-07-13T07:57:04;7.72;;;2.42;;
75739;SDS011;64357;51.344;6.550;2023-07-13T07:59:33;10.00;;;2.33;;
75739;SDS011;64357;51.344;6.550;2023-07-13T08:02:05;6.47;;;2.13;;
75739;SDS011;64357;51.344;6.550;2023-07-13T08:04:31;4.75;;;1.70;;
75739;SDS011;64357;51.344;6.550;2023-07-13T08:06:59;6.13;;;1.70;;
75739;SDS011;64357;51.344;6.550;2023-07-13T08:09:27;10.20;;;2.40;;
75739;SDS011;64357;51.344;6.550;2023-07-13T08:11:53;7.50;;;2.53;;
75739;SDS011;64357;51.344;6.550;2023-07-13T08:14:23;8.32;;;1.98;;
75739;SDS011;64357;51.344;6.550;2023-07-13T08:16:50;7.03;;;1.95;;
75739;SDS011;64357;51.344;6.550;2023-07-13T08:19:18;6.53;;;2.10;;
75739;SDS011;64357;51.344;6.550;2023-07-13T08:21:44;6.43;;;1.98;;
75739;SDS011;64357;51.344;6.550;2023-07-13T08:24:14;6.43;;;2.00;;
75739;SDS011;64357;51.344;6.550;2023-07-13T08:26:40;7.43;;;2.60;;
75739;SDS011;64357;51.344;6.550;2023-07-13T08:29:08;6.72;;;2.47;;
75739;SDS011;64357;51.344;6.550;2023-07-13T08:31:33;9.50;;;2.70;;
75739;SDS011;64357;51.344;6.550;2023-07-13T08:34:01;7.57;;;2.67;;
75739;SDS011;64357;51.344;6.550;2023-07-13T08:36:35;8.65;;;2.33;;
75739;SDS011;64357;51.344;6.550;2023-07-13T08:39:07;7.63;;;2.10;;
75739;SDS011;64357;51.344;6.550;2023-07-13T08:41:33;8.50;;;2.15;;
75739;SDS011;64357;51.344;6.550;2023-07-13T08:44:00;13.63;;;2.75;;
75739;SDS011;64357;51.344;6.550;2023-07-13T08:46:33;5.47;;;1.90;;
75739;SDS011;64357;51.344;6.550;2023-07-13T08:49:02;8.02;;;1.58;;
75739;SDS011;64357;51.344;6.550;2023-07-13T08:54:05;10.52;;;2.20;;
75739;SDS011;64357;51.344;6.550;2023-07-13T08:56:42;7.20;;;2.22;;
75739;SDS011;64357;51.344;6.550;2023-07-13T08:59:20;8.27;;;2.03;;
75739;SDS011;64357;51.344;6.550;2023-07-13T09:04:50;7.65;;;1.70;;
75739;SDS011;64357;51.344;6.550;2023-07-13T09:07:29;13.00;;;2.40;;
75739;SDS011;64357;51.344;6.550;2023-07-13T09:15:21;8.65;;;2.10;;
75739;SDS011;64357;51.344;6.550;2023-07-13T09:17:48;9.10;;;2.13;;
75739;SDS011;64357;51.344;6.550;2023-07-13T09:22:54;8.75;;;2.53;;
75739;SDS011;64357;51.344;6.550;2023-07-13T09:27:57;10.55;;;2.53;;
75739;SDS011;64357;51.344;6.550;2023-07-13T09:30:37;6.30;;;2.35;;
75739;SDS011;64357;51.344;6.550;2023-07-13T09:33:12;8.45;;;2.13;;
75739;SDS011;64357;51.344;6.550;2023-07-13T09:35:39;8.60;;;1.60;;
75739;SDS011;64357;51.344;6.550;2023-07-13T09:38:12;5.40;;;1.67;;
75739;SDS011;64357;51.344;6.550;2023-07-13T09:46:54;6.82;;;2.33;;
75739;SDS011;64357;51.344;6.550;2023-07-13T09:49:26;10.57;;;2.25;;
75739;SDS011;64357;51.344;6.550;2023-07-13T09:52:09;9.18;;;2.05;;
75739;SDS011;64357;51.344;6.550;2023-07-13T09:54:45;7.13;;;1.90;;
75739;SDS011;64357;51.344;6.550;2023-07-13T09:57:15;7.97;;;2.15;;
75739;SDS011;64357;51.344;6.550;2023-07-13T09:59:48;5.07;;;2.15;;
75739;SDS011;64357;51.344;6.550;2023-07-13T10:02:37;6.68;;;2.00;;
75739;SDS011;64357;51.344;6.550;2023-07-13T10:05:13;8.93;;;1.83;;
75739;SDS011;64357;51.344;6.550;2023-07-13T10:07:44;7.55;;;2.90;;
75739;SDS011;64357;51.344;6.550;2023-07-13T10:10:21;8.68;;;2.42;;
75739;SDS011;64357;51.344;6.550;2023-07-13T10:12:48;6.65;;;2.00;;
75739;SDS011;64357;51.344;6.550;2023-07-13T10:15:22;10.90;;;2.30;;
75739;SDS011;64357;51.344;6.550;2023-07-13T10:20:20;5.82;;;2.20;;
75739;SDS011;64357;51.344;6.550;2023-07-13T10:23:23;4.45;;;1.70;;
75739;SDS011;64357;51.344;6.550;2023-07-13T10:25:47;6.15;;;1.50;;
75739;SDS011;64357;51.344;6.550;2023-07-13T10:30:50;6.57;;;2.35;;
75739;SDS011;64357;51.344;6.550;2023-07-13T10:33:19;9.63;;;2.50;;
75739;SDS011;64357;51.344;6.550;2023-07-13T10:35:46;7.38;;;2.30;;
75739;SDS011;64357;51.344;6.550;2023-07-13T10:38:25;7.90;;;1.73;;
75739;SDS011;64357;51.344;6.550;2023-07-13T10:41:03;5.05;;;1.40;;
75739;SDS011;64357;51.344;6.550;2023-07-13T10:43:33;7.68;;;1.92;;
75739;SDS011;64357;51.344;6.550;2023-07-13T10:46:05;5.80;;;1.23;;
75739;SDS011;64357;51.344;6.550;2023-07-13T10:48:34;7.47;;;1.60;;
75739;SDS011;64357;51.344;6.550;2023-07-13T10:51:02;6.88;;;1.58;;
75739;SDS011;64357;51.344;6.550;2023-07-13T10:53:40;8.25;;;2.25;;
75739;SDS011;64357;51.344;6.550;2023-07-13T10:59:10;5.60;;;1.80;;
75739;SDS011;64357;51.344;6.550;2023-07-13T11:01:51;5.80;;;1.90;;
75739;SDS011;64357;51.344;6.550;2023-07-13T11:04:24;7.32;;;1.92;;
75739;SDS011;64357;51.344;6.550;2023-07-13T11:07:00;6.25;;;2.13;;
75739;SDS011;64357;51.344;6.550;2023-07-13T11:09:43;5.80;;;1.70;;
75739;SDS011;64357;51.344;6.550;2023-07-13T11:23:07;6.47;;;1.90;;
75739;SDS011;64357;51.344;6.550;2023-07-13T11:25:36;6.47;;;2.15;;
75739;SDS011;64357;51.344;6.550;2023-07-13T11:35:46;4.40;;;1.30;;
75739;SDS011;64357;51.344;6.550;2023-07-13T11:38:19;7.93;;;2.08;;
75739;SDS011;64357;51.344;6.550;2023-07-13T11:40:47;7.95;;;3.10;;
75739;SDS011;64357;51.344;6.550;2023-07-13T11:43:15;4.97;;;1.45;;
75739;SDS011;64357;51.344;6.550;2023-07-13T11:45:42;5.72;;;1.35;;
75739;SDS011;64357;51.344;6.550;2023-07-13T11:48:27;4.93;;;1.60;;
75739;SDS011;64357;51.344;6.550;2023-07-13T11:51:02;7.22;;;1.83;;
75739;SDS011;64357;51.344;6.550;2023-07-13T11:53:32;5.22;;;1.67;;
75739;SDS011;64357;51.344;6.550;2023-07-13T11:56:04;6.10;;;1.55;;
75739;SDS011;64357;51.344;6.550;2023-07-13T11:58:30;3.80;;;1.10;;
75739;SDS011;64357;51.344;6.550;2023-07-13T12:00:59;3.55;;;1.08;;
75739;SDS011;64357;51.344;6.550;2023-07-13T12:03:28;5.97;;;1.52;;
75739;SDS011;64357;51.344;6.550;2023-07-13T12:05:54;4.40;;;1.58;;
75739;SDS011;64357;51.344;6.550;2023-07-13T12:08:26;6.55;;;1.40;;
75739;SDS011;64357;51.344;6.550;2023-07-13T12:11:03;4.30;;;1.40;;
75739;SDS011;64357;51.344;6.550;2023-07-13T12:13:37;4.95;;;1.35;;
75739;SDS011;64357;51.344;6.550;2023-07-13T12:18:49;6.03;;;1.45;;
75739;SDS011;64357;51.344;6.550;2023-07-13T12:21:18;6.18;;;1.17;;
75739;SDS011;64357;51.344;6.550;2023-07-13T12:23:47;5.47;;;1.13;;
75739;SDS011;64357;51.344;6.550;2023-07-13T12:26:14;5.32;;;1.30;;
75739;SDS011;64357;51.344;6.550;2023-07-13T12:28:53;6.75;;;1.60;;
75739;SDS011;64357;51.344;6.550;2023-07-13T12:31:40;8.88;;;1.70;;
75739;SDS011;64357;51.344;6.550;2023-07-13T12:34:19;4.40;;;1.30;;
75739;SDS011;64357;51.344;6.550;2023-07-13T12:42:09;8.43;;;2.05;;
75739;SDS011;64357;51.344;6.550;2023-07-13T12:44:46;5.70;;;1.55;;
75739;SDS011;64357;51.344;6.550;2023-07-13T12:47:13;5.75;;;1.65;;
75739;SDS011;64357;51.344;6.550;2023-07-13T12:49:44;5.28;;;1.40;;
75739;SDS011;64357;51.344;6.550;2023-07-13T12:52:16;2.97;;;1.30;;
75739;SDS011;64357;51.344;6.550;2023-07-13T12:54:58;6.03;;;1.60;;
75739;SDS011;64357;51.344;6.550;2023-07-13T12:57:33;5.13;;;1.23;;
75739;SDS011;64357;51.344;6.550;2023-07-13T13:00:22;3.40;;;1.20;;
75739;SDS011;64357;51.344;6.550;2023-07-13T13:02:50;6.32;;;1.35;;
75739;SDS011;64357;51.344;6.550;2023-07-13T13:05:19;6.35;;;1.40;;
75739;SDS011;64357;51.344;6.550;2023-07-13T13:07:48;4.18;;;1.23;;
75739;SDS011;64357;51.344;6.550;2023-07-13T13:10:14;4.25;;;1.52;;
75739;SDS011;64357;51.344;6.550;2023-07-13T13:12:42;4.43;;;1.30;;
75739;SDS011;64357;51.344;6.550;2023-07-13T13:15:08;4.30;;;1.25;;
75739;SDS011;64357;51.344;6.550;2023-07-13T13:17:36;2.90;;;1.13;;
75739;SDS011;64357;51.344;6.550;2023-07-13T13:20:04;4.65;;;1.30;;
75739;SDS011;64357;51.344;6.550;2023-07-13T13:22:42;5.22;;;1.13;;
75739;SDS011;64357;51.344;6.550;2023-07-13T13:25:10;3.22;;;1.10;;
75739;SDS011;64357;51.344;6.550;2023-07-13T13:27:43;6.03;;;1.30;;
75739;SDS011;64357;51.344;6.550;2023-07-13T13:30:11;5.75;;;1.25;;
75739;SDS011;64357;51.344;6.550;2023-07-13T13:32:39;4.60;;;1.05;;
75739;SDS011;64357;51.344;6.550;2023-07-13T13:35:17;4.45;;;1.48;;
75739;SDS011;64357;51.344;6.550;2023-07-13T13:37:44;4.32;;;1.77;;
75739;SDS011;64357;51.344;6.550;2023-07-13T13:40:16;4.50;;;0.90;;
75739;SDS011;64357;51.344;6.550;2023-07-13T13:42:43;5.70;;;1.40;;
75739;SDS011;64357;51.344;6.550;2023-07-13T13:45:12;5.57;;;1.23;;
75739;SDS011;64357;51.344;6.550;2023-07-13T13:47:38;4.80;;;1.15;;
75739;SDS011;64357;51.344;6.550;2023-07-13T13:52:58;3.83;;;1.02;;
75739;SDS011;64357;51.344;6.550;2023-07-13T13:55:23;2.05;;;0.75;;
75739;SDS011;64357;51.344;6.550;2023-07-13T13:57:51;6.25;;;1.17;;
75739;SDS011;64357;51.344;6.550;2023-07-13T14:00:16;2.60;;;1.08;;
75739;SDS011;64357;51.344;6.550;2023-07-13T14:02:49;4.10;;;1.38;;
75739;SDS011;64357;51.344;6.550;2023-07-13T14:05:25;4.20;;;1.20;;
75739;SDS011;64357;51.344;6.550;2023-07-13T14:07:52;3.60;;;1.00;;
75739;SDS011;64357;51.344;6.550;2023-07-13T14:10:18;2.70;;;1.00;;
75739;SDS011;64357;51.344;6.550;2023-07-13T14:12:51;5.75;;;1.20;;
75739;SDS011;64357;51.344;6.550;2023-07-13T14:15:23;3.10;;;1.10;;
75739;SDS011;64357;51.344;6.550;2023-07-13T14:17:51;5.32;;;1.20;;
75739;SDS011;64357;51.344;6.550;2023-07-13T14:20:23;4.25;;;1.45;;
75739;SDS011;64357;51.344;6.550;2023-07-13T14:22:50;3.63;;;1.15;;
75739;SDS011;64357;51.344;6.550;2023-07-13T14:25:17;4.60;;;0.98;;
75739;SDS011;64357;51.344;6.550;2023-07-13T14:27:49;4.18;;;1.30;;
75739;SDS011;64357;51.344;6.550;2023-07-13T14:30:23;1.98;;;0.82;;
75739;SDS011;64357;51.344;6.550;2023-07-13T14:32:49;3.92;;;1.55;;
75739;SDS011;64357;51.344;6.550;2023-07-13T14:35:16;4.53;;;1.05;;
75739;SDS011;64357;51.344;6.550;2023-07-13T14:37:42;4.22;;;1.40;;
75739;SDS011;64357;51.344;6.550;2023-07-13T14:40:15;5.25;;;1.55;;
75739;SDS011;64357;51.344;6.550;2023-07-13T14:42:45;4.80;;;1.30;;
75739;SDS011;64357;51.344;6.550;2023-07-13T14:45:14;2.38;;;1.00;;
75739;SDS011;64357;51.344;6.550;2023-07-13T14:50:12;3.10;;;1.15;;
75739;SDS011;64357;51.344;6.550;2023-07-13T14:52:41;3.35;;;1.10;;
75739;SDS011;64357;51.344;6.550;2023-07-13T14:55:13;5.18;;;1.30;;
75739;SDS011;64357;51.344;6.550;2023-07-13T14:57:41;5.78;;;2.10;;
75739;SDS011;64357;51.344;6.550;2023-07-13T15:03:02;5.38;;;1.30;;
75739;SDS011;64357;51.344;6.550;2023-07-13T15:05:31;3.50;;;1.20;;
75739;SDS011;64357;51.344;6.550;2023-07-13T15:07:58;5.55;;;1.77;;
75739;SDS011;64357;51.344;6.550;2023-07-13T15:10:29;3.45;;;1.20;;
75739;SDS011;64357;51.344;6.550;2023-07-13T15:13:00;3.55;;;0.90;;
75739;SDS011;64357;51.344;6.550;2023-07-13T15:15:31;3.60;;;1.20;;
75739;SDS011;64357;51.344;6.550;2023-07-13T15:18:01;2.85;;;0.90;;
75739;SDS011;64357;51.344;6.550;2023-07-13T15:20:28;2.92;;;1.00;;
75739;SDS011;64357;51.344;6.550;2023-07-13T15:22:57;1.38;;;0.68;;
75739;SDS011;64357;51.344;6.550;2023-07-13T15:25:25;2.17;;;1.00;;
75739;SDS011;64357;51.344;6.550;2023-07-13T15:27:55;4.38;;;1.13;;
75739;SDS011;64357;51.344;6.550;2023-07-13T15:30:41;4.35;;;1.30;;
75739;SDS011;64357;51.344;6.550;2023-07-13T15:33:13;4.60;;;1.20;;
75739;SDS011;64357;51.344;6.550;2023-07-13T15:35:42;3.92;;;1.05;;
75739;SDS011;64357;51.344;6.550;2023-07-13T15:38:15;5.80;;;1.40;;
75739;SDS011;64357;51.344;6.550;2023-07-13T15:40:45;5.00;;;1.70;;
75739;SDS011;64357;51.344;6.550;2023-07-13T15:43:14;4.85;;;1.50;;
75739;SDS011;64357;51.344;6.550;2023-07-13T15:45:44;4.82;;;1.30;;
75739;SDS011;64357;51.344;6.550;2023-07-13T15:48:15;4.47;;;1.52;;
75739;SDS011;64357;51.344;6.550;2023-07-13T15:50:47;5.90;;;1.50;;
75739;SDS011;64357;51.344;6.550;2023-07-13T15:53:15;3.15;;;1.40;;
75739;SDS011;64357;51.344;6.550;2023-07-13T15:55:49;4.88;;;1.58;;
75739;SDS011;64357;51.344;6.550;2023-07-13T15:58:15;4.70;;;1.35;;
75739;SDS011;64357;51.344;6.550;2023-07-13T16:00:41;5.88;;;1.55;;
75739;SDS011;64357;51.344;6.550;2023-07-13T16:03:09;4.45;;;1.35;;
75739;SDS011;64357;51.344;6.550;2023-07-13T16:05:35;5.38;;;1.83;;
75739;SDS011;64357;51.344;6.550;2023-07-13T16:08:03;7.05;;;2.20;;
75739;SDS011;64357;51.344;6.550;2023-07-13T16:10:39;6.90;;;1.50;;
75739;SDS011;64357;51.344;6.550;2023-07-13T16:13:08;5.07;;;1.30;;